Time;durP1;ratioP1;P1;durP2;ratioP2;P2;SDS_P1;SDS_P2;PMS_P1;PMS_P2;Temp;Humidity;BMP_temperature;BMP_pressure;BME280_temperature;BME280_humidity;BME280_pressure;Samples;Min_cycle;Max_cycle;Signal;HPM_P1;HPM_P2
2021/09/16 00:01:54;;;;;;;;;;;15.90;99.90;;;;;;4899272;29;19974;-72
2021/09/16 00:04:20;;;;;;;;;;;16.00;99.90;;;;;;4895961;29;19919;-71
2021/09/16 00:06:45;;;;;;;;;;;16.00;99.90;;;;;;4898667;29;19911;-72
2021/09/16 00:09:11;;;;;;;;;;;16.00;99.90;;;;;;4898299;29;19919;-71
2021/09/16 00:11:36;;;;;;;;;;;16.00;99.90;;;;;;4898258;29;20285;-71
2021/09/16 00:14:02;;;;;;;;;;;15.90;99.90;;;;;;4895790;29;19915;-71
2021/09/16 00:16:28;;;;;;;;;;;15.80;99.90;;;;;;4898140;29;19915;-72
2021/09/16 00:18:53;;;;;;;;;;;15.80;99.90;;;;;;4912915;29;19963;-71
2021/09/16 00:21:18;;;;;;;;;;;15.80;99.90;;;;;;4912268;29;19911;-71
2021/09/16 00:23:44;;;;;;;;;;;15.90;99.90;;;;;;4898557;29;19911;-72
2021/09/16 00:26:10;;;;;;;;;;;15.80;99.90;;;;;;4896667;29;19912;-70
2021/09/16 00:28:35;;;;;;;;;;;15.80;99.90;;;;;;4899518;29;19915;-70
2021/09/16 00:31:01;;;;;;;;;;;15.80;99.90;;;;;;4903530;29;20369;-70
2021/09/16 00:33:26;;;;;;;;;;;15.80;99.90;;;;;;4917789;29;19966;-70
2021/09/16 00:35:51;;;;;;;;;;;15.70;99.90;;;;;;4898408;29;20014;-70
2021/09/16 00:38:17;;;;;;;;;;;15.70;99.90;;;;;;4895184;29;20384;-71
2021/09/16 00:40:42;;;;;;;;;;;15.70;99.90;;;;;;4918421;29;19911;-70
2021/09/16 00:43:08;;;;;;;;;;;15.70;99.90;;;;;;4904162;29;19915;-70
2021/09/16 00:45:33;;;;;;;;;;;15.50;99.90;;;;;;4903985;29;19966;-70
2021/09/16 00:47:59;;;;;;;;;;;15.60;99.90;;;;;;4903868;29;19956;-71
2021/09/16 00:50:25;;;;;;;;;;;15.60;99.90;;;;;;4897502;29;19919;-70
2021/09/16 00:52:51;;;;;;;;;;;15.50;99.90;;;;;;4903267;29;19911;-70
2021/09/16 00:55:16;;;;;;;;;;;15.50;99.90;;;;;;4902556;29;19911;-70
2021/09/16 00:57:47;;;;;;;;;;;15.50;99.90;;;;;;4900321;29;19911;-70
2021/09/16 01:00:13;;;;;;;;;;;15.50;99.90;;;;;;4903322;29;19911;-71
2021/09/16 01:02:38;;;;;;;;;;;15.60;99.90;;;;;;4903214;29;20014;-71
2021/09/16 01:05:04;;;;;;;;;;;15.60;99.90;;;;;;4903772;29;19912;-70
2021/09/16 01:07:30;;;;;;;;;;;15.60;99.90;;;;;;4903677;29;20002;-71
2021/09/16 01:09:59;;;;;;;;;;;15.60;99.90;;;;;;4902263;29;19915;-70
2021/09/16 01:12:25;;;;;;;;;;;15.50;99.90;;;;;;4903782;29;20025;-70
2021/09/16 01:14:51;;;;;;;;;;;15.50;99.90;;;;;;4903656;29;19911;-71
2021/09/16 01:17:16;;;;;;;;;;;15.50;99.90;;;;;;4914816;29;19915;-70
2021/09/16 01:19:42;;;;;;;;;;;15.50;99.90;;;;;;4903678;29;19947;-70
2021/09/16 01:22:10;;;;;;;;;;;15.50;99.90;;;;;;4901969;29;20333;-71
2021/09/16 01:24:35;;;;;;;;;;;15.40;99.90;;;;;;4903754;29;19998;-70
2021/09/16 01:27:01;;;;;;;;;;;15.40;99.90;;;;;;4903318;29;20416;-71
2021/09/16 01:29:26;;;;;;;;;;;15.50;99.90;;;;;;4901527;29;19919;-70
2021/09/16 01:31:52;;;;;;;;;;;15.50;99.90;;;;;;4894391;29;19920;-71
2021/09/16 01:34:18;;;;;;;;;;;15.50;99.90;;;;;;4903239;29;19918;-70
2021/09/16 01:36:45;;;;;;;;;;;15.60;99.90;;;;;;4903355;29;19986;-70
2021/09/16 01:39:14;;;;;;;;;;;15.60;99.90;;;;;;4916587;29;19998;-70
2021/09/16 01:41:39;;;;;;;;;;;15.60;99.90;;;;;;4898883;29;19970;-71
2021/09/16 01:44:05;;;;;;;;;;;15.60;99.90;;;;;;4900609;29;19912;-71
2021/09/16 01:46:31;;;;;;;;;;;15.60;99.90;;;;;;4914841;29;19930;-71
2021/09/16 01:48:57;;;;;;;;;;;15.70;99.90;;;;;;4900769;29;19918;-70
2021/09/16 01:51:23;;;;;;;;;;;15.70;99.90;;;;;;4900142;29;19916;-71
2021/09/16 01:53:48;;;;;;;;;;;15.80;99.90;;;;;;4899823;29;19912;-71
2021/09/16 01:56:14;;;;;;;;;;;15.90;99.90;;;;;;4899584;29;19918;-71
2021/09/16 01:58:39;;;;;;;;;;;15.80;99.90;;;;;;4899079;29;20261;-71
2021/09/16 02:01:05;;;;;;;;;;;15.90;99.90;;;;;;4900002;29;20388;-70
2021/09/16 02:03:31;;;;;;;;;;;15.90;99.90;;;;;;4900328;29;20021;-71
2021/09/16 02:05:56;;;;;;;;;;;16.00;99.90;;;;;;4899299;29;19918;-72
2021/09/16 02:08:22;;;;;;;;;;;15.90;99.90;;;;;;4899897;29;19970;-71
2021/09/16 02:10:47;;;;;;;;;;;15.90;99.90;;;;;;4900139;29;19912;-72
2021/09/16 02:13:13;;;;;;;;;;;15.90;99.90;;;;;;4900410;29;20283;-71
2021/09/16 02:15:38;;;;;;;;;;;15.90;99.90;;;;;;4899975;29;19912;-71
2021/09/16 02:18:04;;;;;;;;;;;15.90;99.90;;;;;;4899458;29;20258;-72
2021/09/16 02:20:30;;;;;;;;;;;15.90;99.90;;;;;;4898434;29;19912;-72
2021/09/16 02:22:55;;;;;;;;;;;15.90;99.90;;;;;;4899460;29;19915;-71
2021/09/16 02:25:21;;;;;;;;;;;15.80;99.90;;;;;;4898770;29;20757;-70
2021/09/16 02:27:46;;;;;;;;;;;15.80;99.90;;;;;;4899718;29;19971;-72
2021/09/16 02:30:13;;;;;;;;;;;15.80;99.90;;;;;;4899682;29;19911;-72
2021/09/16 02:32:38;;;;;;;;;;;15.80;99.90;;;;;;4899367;29;19920;-71
2021/09/16 02:35:04;;;;;;;;;;;15.80;99.90;;;;;;4914374;29;20265;-71
2021/09/16 02:37:30;;;;;;;;;;;15.70;99.90;;;;;;4894459;29;20257;-71
2021/09/16 02:39:55;;;;;;;;;;;15.80;99.90;;;;;;4899369;29;19918;-71
2021/09/16 02:42:21;;;;;;;;;;;15.70;99.90;;;;;;4899547;29;19975;-71
2021/09/16 02:44:47;;;;;;;;;;;15.80;99.90;;;;;;4898717;29;19923;-71
2021/09/16 02:47:12;;;;;;;;;;;15.80;99.90;;;;;;4899224;29;19911;-71
2021/09/16 02:49:38;;;;;;;;;;;15.80;99.90;;;;;;4898414;29;19915;-71
2021/09/16 02:52:03;;;;;;;;;;;15.80;99.90;;;;;;4897747;29;19919;-72
2021/09/16 02:54:29;;;;;;;;;;;15.80;99.90;;;;;;4899269;29;19911;-71
2021/09/16 02:56:54;;;;;;;;;;;15.80;99.90;;;;;;4894917;29;19911;-71
2021/09/16 02:59:20;;;;;;;;;;;15.70;99.90;;;;;;4898641;29;19915;-73
2021/09/16 03:01:45;;;;;;;;;;;15.80;99.90;;;;;;4913395;29;19920;-72
2021/09/16 03:04:11;;;;;;;;;;;15.80;99.90;;;;;;4899074;29;19911;-72
2021/09/16 03:06:36;;;;;;;;;;;15.80;99.90;;;;;;4900974;29;19919;-72
2021/09/16 03:09:02;;;;;;;;;;;15.80;99.90;;;;;;4898981;29;19916;-71
2021/09/16 03:11:27;;;;;;;;;;;15.90;99.90;;;;;;4899047;29;20011;-71
2021/09/16 03:13:53;;;;;;;;;;;15.90;99.90;;;;;;4913752;29;20289;-72
2021/09/16 03:16:18;;;;;;;;;;;15.90;99.90;;;;;;4889143;29;19911;-72
2021/09/16 03:18:44;;;;;;;;;;;15.90;99.90;;;;;;4897804;29;19918;-71
2021/09/16 03:21:10;;;;;;;;;;;15.90;99.90;;;;;;4898480;29;19919;-72
2021/09/16 03:23:35;;;;;;;;;;;15.90;99.90;;;;;;4898834;29;19915;-72
2021/09/16 03:26:01;;;;;;;;;;;15.90;99.90;;;;;;4897010;29;19918;-71
2021/09/16 03:28:26;;;;;;;;;;;15.90;99.90;;;;;;4898125;29;19915;-72
2021/09/16 03:30:52;;;;;;;;;;;15.90;99.90;;;;;;4898648;29;19915;-72
2021/09/16 03:33:17;;;;;;;;;;;15.90;99.90;;;;;;4897256;29;19912;-72
2021/09/16 03:35:43;;;;;;;;;;;16.00;99.90;;;;;;4889814;29;20325;-73
2021/09/16 03:38:08;;;;;;;;;;;16.00;99.90;;;;;;4898460;29;19966;-72
2021/09/16 03:40:34;;;;;;;;;;;16.00;99.90;;;;;;4898582;29;19908;-72
2021/09/16 03:42:59;;;;;;;;;;;16.00;99.90;;;;;;4912825;29;19918;-72
2021/09/16 03:45:25;;;;;;;;;;;16.00;99.90;;;;;;4891851;29;19911;-71
2021/09/16 03:47:50;;;;;;;;;;;16.00;99.90;;;;;;4880735;29;19914;-72
2021/09/16 03:50:16;;;;;;;;;;;16.00;99.90;;;;;;4898647;29;19908;-72
2021/09/16 03:52:41;;;;;;;;;;;16.00;99.90;;;;;;4896911;29;20390;-71
2021/09/16 03:55:07;;;;;;;;;;;16.00;99.90;;;;;;4894024;29;19916;-72
2021/09/16 03:57:32;;;;;;;;;;;16.00;99.90;;;;;;4878073;29;19975;-72
2021/09/16 03:59:58;;;;;;;;;;;16.00;99.90;;;;;;4891160;29;19911;-73
2021/09/16 04:02:23;;;;;;;;;;;16.00;99.90;;;;;;4911917;29;19915;-71
2021/09/16 04:04:49;;;;;;;;;;;16.00;99.90;;;;;;4896633;29;19918;-71
2021/09/16 04:07:14;;;;;;;;;;;16.00;99.90;;;;;;4898099;29;20018;-72
2021/09/16 04:09:40;;;;;;;;;;;16.00;99.90;;;;;;4896808;29;19940;-72
2021/09/16 04:12:06;;;;;;;;;;;16.00;99.90;;;;;;4897879;29;19967;-72
2021/09/16 04:14:31;;;;;;;;;;;16.00;99.90;;;;;;4894440;29;19915;-72
2021/09/16 04:16:56;;;;;;;;;;;16.00;99.90;;;;;;4898329;29;19986;-72
2021/09/16 04:19:22;;;;;;;;;;;16.00;99.90;;;;;;4912099;29;19911;-72
2021/09/16 04:21:48;;;;;;;;;;;16.00;99.90;;;;;;4897429;29;20021;-72
2021/09/16 04:24:13;;;;;;;;;;;16.00;99.90;;;;;;4900751;29;19959;-72
2021/09/16 04:26:40;;;;;;;;;;;16.00;99.90;;;;;;4914874;29;20009;-73
2021/09/16 04:29:06;;;;;;;;;;;16.00;99.90;;;;;;4900573;29;19916;-72
2021/09/16 04:31:31;;;;;;;;;;;16.00;99.90;;;;;;4916172;29;19929;-72
2021/09/16 04:33:57;;;;;;;;;;;16.00;99.90;;;;;;4902483;29;19916;-72
2021/09/16 04:36:22;;;;;;;;;;;16.00;99.90;;;;;;4916514;29;19914;-73
2021/09/16 04:38:47;;;;;;;;;;;16.00;99.90;;;;;;4901739;29;20325;-71
2021/09/16 04:41:13;;;;;;;;;;;16.00;99.90;;;;;;4917320;29;19907;-72
2021/09/16 04:43:38;;;;;;;;;;;16.00;99.90;;;;;;4906043;29;19957;-72
2021/09/16 04:46:04;;;;;;;;;;;16.00;99.90;;;;;;4901343;29;20349;-72
2021/09/16 04:48:29;;;;;;;;;;;15.90;99.90;;;;;;4901314;29;19916;-72
2021/09/16 04:50:55;;;;;;;;;;;15.90;99.90;;;;;;4900489;29;19974;-72
2021/09/16 04:53:20;;;;;;;;;;;15.90;99.90;;;;;;4897640;29;20003;-72
2021/09/16 04:55:46;;;;;;;;;;;15.90;99.90;;;;;;4898027;29;19911;-71
2021/09/16 04:58:11;;;;;;;;;;;15.90;99.90;;;;;;4898598;29;19928;-71
2021/09/16 05:00:37;;;;;;;;;;;15.90;99.90;;;;;;4896480;29;20002;-71
2021/09/16 05:03:02;;;;;;;;;;;15.80;99.90;;;;;;4898331;29;20365;-71
2021/09/16 05:05:28;;;;;;;;;;;15.80;99.90;;;;;;4897088;29;19911;-72
2021/09/16 05:07:53;;;;;;;;;;;15.80;99.90;;;;;;4897121;29;19975;-71
2021/09/16 05:10:19;;;;;;;;;;;15.80;99.90;;;;;;4897129;29;19918;-71
2021/09/16 05:12:45;;;;;;;;;;;15.80;99.90;;;;;;4886155;29;20579;-71
2021/09/16 05:15:10;;;;;;;;;;;15.90;99.90;;;;;;4881555;29;19990;-72
2021/09/16 05:17:36;;;;;;;;;;;15.90;99.90;;;;;;4898567;29;19911;-72
2021/09/16 05:20:02;;;;;;;;;;;15.90;99.90;;;;;;4901240;29;19912;-72
2021/09/16 05:22:28;;;;;;;;;;;15.90;99.90;;;;;;4892025;29;20253;-72
2021/09/16 05:24:53;;;;;;;;;;;15.90;99.90;;;;;;4899314;29;19911;-71
2021/09/16 05:27:19;;;;;;;;;;;16.00;99.90;;;;;;4897624;29;19986;-71
2021/09/16 05:29:47;;;;;;;;;;;15.90;99.90;;;;;;4897551;29;19918;-71
2021/09/16 05:32:13;;;;;;;;;;;15.90;99.90;;;;;;4900411;29;19915;-71
2021/09/16 05:34:39;;;;;;;;;;;15.90;99.90;;;;;;4900183;29;19911;-71
2021/09/16 05:37:04;;;;;;;;;;;15.90;99.90;;;;;;4901047;29;19998;-71
2021/09/16 05:39:30;;;;;;;;;;;15.80;99.90;;;;;;4898791;29;19917;-71
2021/09/16 05:41:55;;;;;;;;;;;15.80;99.90;;;;;;4914359;29;19915;-71
2021/09/16 05:44:21;;;;;;;;;;;15.70;99.90;;;;;;4900666;29;19936;-71
2021/09/16 05:46:46;;;;;;;;;;;15.70;99.90;;;;;;4896571;29;19971;-71
2021/09/16 05:49:12;;;;;;;;;;;15.60;99.90;;;;;;4895462;29;19911;-73
2021/09/16 05:51:38;;;;;;;;;;;15.60;99.90;;;;;;4898697;29;19911;-70
2021/09/16 05:54:03;;;;;;;;;;;15.60;99.90;;;;;;4895317;29;19944;-72
2021/09/16 05:56:29;;;;;;;;;;;15.60;99.90;;;;;;4900359;29;19967;-72
2021/09/16 05:58:56;;;;;;;;;;;15.70;99.90;;;;;;4900110;29;19912;-73
2021/09/16 06:01:21;;;;;;;;;;;15.70;99.90;;;;;;4898493;29;19911;-73
2021/09/16 06:03:47;;;;;;;;;;;15.70;99.90;;;;;;4897290;29;19915;-72
2021/09/16 06:06:13;;;;;;;;;;;15.70;99.90;;;;;;4900193;29;19911;-72
2021/09/16 06:08:38;;;;;;;;;;;15.70;99.90;;;;;;4899390;29;19946;-73
2021/09/16 06:11:04;;;;;;;;;;;15.70;99.90;;;;;;4899458;29;19929;-72
2021/09/16 06:13:30;;;;;;;;;;;15.70;99.90;;;;;;4895774;29;19926;-72
2021/09/16 06:15:56;;;;;;;;;;;15.70;99.90;;;;;;4885149;29;19916;-72
2021/09/16 06:18:21;;;;;;;;;;;15.70;99.90;;;;;;4899323;29;19934;-73
2021/09/16 06:20:49;;;;;;;;;;;15.70;99.90;;;;;;4900189;29;19915;-73
2021/09/16 06:23:15;;;;;;;;;;;15.70;99.90;;;;;;4896543;29;20014;-73
2021/09/16 06:25:41;;;;;;;;;;;15.70;99.90;;;;;;4899459;29;19963;-73
2021/09/16 06:28:06;;;;;;;;;;;15.70;99.90;;;;;;4898601;29;19915;-72
2021/09/16 06:30:32;;;;;;;;;;;15.80;99.90;;;;;;4899520;29;19983;-72
2021/09/16 06:32:58;;;;;;;;;;;15.70;99.90;;;;;;4897254;29;19911;-72
2021/09/16 06:35:23;;;;;;;;;;;15.70;99.90;;;;;;4900042;29;20353;-73
2021/09/16 06:37:49;;;;;;;;;;;15.70;99.90;;;;;;4894029;29;19911;-72
2021/09/16 06:40:15;;;;;;;;;;;15.70;99.90;;;;;;4899153;29;19918;-73
2021/09/16 06:42:40;;;;;;;;;;;15.80;99.90;;;;;;4899521;29;19923;-73
2021/09/16 06:45:07;;;;;;;;;;;15.90;99.90;;;;;;4899488;29;20046;-72
2021/09/16 06:47:32;;;;;;;;;;;15.90;99.90;;;;;;4899194;29;19915;-73
2021/09/16 06:49:58;;;;;;;;;;;16.10;99.90;;;;;;4898467;29;19939;-71
2021/09/16 06:52:24;;;;;;;;;;;16.20;99.90;;;;;;4899409;29;19911;-71
2021/09/16 06:54:50;;;;;;;;;;;16.30;99.90;;;;;;4898578;29;19919;-71
2021/09/16 06:57:16;;;;;;;;;;;16.40;99.90;;;;;;4897579;29;19917;-71
2021/09/16 06:59:41;;;;;;;;;;;16.50;99.90;;;;;;4898097;29;19911;-72
2021/09/16 07:02:07;;;;;;;;;;;16.50;99.90;;;;;;4899184;29;20007;-71
2021/09/16 07:04:32;;;;;;;;;;;16.60;99.90;;;;;;4888918;29;19918;-70
2021/09/16 07:07:03;;;;;;;;;;;16.60;99.90;;;;;;4880469;29;19920;-69
2021/09/16 07:09:29;;;;;;;;;;;16.70;99.90;;;;;;4885863;29;19959;-72
2021/09/16 07:11:55;;;;;;;;;;;16.70;99.90;;;;;;4899229;29;19918;-71
2021/09/16 07:14:20;;;;;;;;;;;16.70;99.90;;;;;;4897923;29;20006;-72
2021/09/16 07:16:46;;;;;;;;;;;16.80;99.90;;;;;;4897135;29;20477;-72
2021/09/16 07:19:11;;;;;;;;;;;16.90;99.90;;;;;;4898689;29;19959;-72
2021/09/16 07:21:37;;;;;;;;;;;17.00;99.90;;;;;;4898966;29;19923;-70
2021/09/16 07:24:03;;;;;;;;;;;17.00;99.90;;;;;;4890759;29;20329;-71
2021/09/16 07:26:28;;;;;;;;;;;17.00;99.90;;;;;;4895896;29;19911;-71
2021/09/16 07:28:54;;;;;;;;;;;17.00;99.90;;;;;;4898452;29;19911;-75
2021/09/16 07:31:20;;;;;;;;;;;17.00;99.90;;;;;;4897412;29;20285;-71
2021/09/16 07:33:46;;;;;;;;;;;17.00;99.90;;;;;;4888749;29;19912;-69
2021/09/16 07:36:12;;;;;;;;;;;17.10;99.90;;;;;;4889499;29;19911;-69
2021/09/16 07:38:38;;;;;;;;;;;17.10;99.90;;;;;;4897107;29;19918;-70
2021/09/16 07:41:03;;;;;;;;;;;17.20;99.90;;;;;;4898321;29;20432;-69
2021/09/16 07:43:29;;;;;;;;;;;17.20;99.90;;;;;;4895725;29;19922;-71
2021/09/16 07:45:55;;;;;;;;;;;17.30;99.90;;;;;;4897741;29;19911;-72
2021/09/16 07:48:21;;;;;;;;;;;17.30;99.90;;;;;;4898705;29;20009;-70
2021/09/16 07:50:47;;;;;;;;;;;17.30;99.90;;;;;;4896574;29;20175;-70
2021/09/16 07:53:12;;;;;;;;;;;17.30;99.90;;;;;;4898106;29;20357;-69
2021/09/16 07:55:38;;;;;;;;;;;17.30;99.90;;;;;;4889844;29;19991;-70
2021/09/16 07:58:05;;;;;;;;;;;17.30;99.90;;;;;;4897705;29;19921;-70
2021/09/16 08:00:30;;;;;;;;;;;17.40;99.90;;;;;;4896790;29;19919;-69
2021/09/16 08:02:56;;;;;;;;;;;17.50;99.90;;;;;;4898293;29;20296;-72
2021/09/16 08:05:22;;;;;;;;;;;17.60;99.90;;;;;;4898470;29;20269;-69
2021/09/16 08:07:47;;;;;;;;;;;17.60;99.90;;;;;;4897637;29;19919;-69
2021/09/16 08:10:13;;;;;;;;;;;17.60;99.90;;;;;;4898285;29;19918;-69
2021/09/16 08:12:39;;;;;;;;;;;17.70;99.90;;;;;;4898265;29;19927;-70
2021/09/16 08:15:05;;;;;;;;;;;17.70;99.90;;;;;;4886922;29;19912;-70
2021/09/16 08:17:31;;;;;;;;;;;17.70;99.90;;;;;;4879705;29;20304;-70
2021/09/16 08:19:56;;;;;;;;;;;17.80;99.90;;;;;;4878518;29;19924;-72
2021/09/16 08:22:22;;;;;;;;;;;17.80;99.90;;;;;;4879824;29;19923;-72
2021/09/16 08:24:48;;;;;;;;;;;17.80;99.90;;;;;;4890196;29;20265;-72
2021/09/16 08:27:13;;;;;;;;;;;18.00;99.90;;;;;;4896825;29;19919;-71
2021/09/16 08:29:39;;;;;;;;;;;18.00;99.90;;;;;;4898176;29;20026;-69
2021/09/16 08:32:05;;;;;;;;;;;18.00;99.90;;;;;;4912678;29;19915;-70
2021/09/16 08:34:31;;;;;;;;;;;18.00;99.90;;;;;;4892123;29;19955;-70
2021/09/16 08:36:57;;;;;;;;;;;18.00;99.90;;;;;;4879401;29;19923;-70
2021/09/16 08:39:23;;;;;;;;;;;18.10;99.90;;;;;;4877489;29;20369;-70
2021/09/16 08:41:49;;;;;;;;;;;18.20;99.90;;;;;;4879284;29;19963;-71
2021/09/16 08:44:17;;;;;;;;;;;18.40;99.90;;;;;;4879633;29;19911;-70
2021/09/16 08:46:43;;;;;;;;;;;18.40;99.90;;;;;;4879317;29;19927;-70
2021/09/16 08:49:09;;;;;;;;;;;18.40;99.90;;;;;;4894157;29;19908;-70
2021/09/16 08:51:35;;;;;;;;;;;18.50;99.90;;;;;;4883214;29;19943;-70
2021/09/16 08:54:02;;;;;;;;;;;18.60;99.90;;;;;;4883148;29;19908;-71
2021/09/16 08:56:28;;;;;;;;;;;18.60;99.90;;;;;;4897097;29;20006;-72
2021/09/16 08:58:58;;;;;;;;;;;18.50;99.90;;;;;;4900437;29;20398;-71
2021/09/16 09:01:24;;;;;;;;;;;18.30;99.90;;;;;;4892598;29;20114;-72
2021/09/16 09:03:49;;;;;;;;;;;18.30;99.90;;;;;;4902527;29;19986;-70
2021/09/16 09:06:34;;;;;;;;;;;18.30;99.90;;;;;;4885577;29;19912;-72
2021/09/16 09:09:11;;;;;;;;;;;18.40;99.90;;;;;;4884897;29;19908;-72
2021/09/16 09:11:52;;;;;;;;;;;18.40;99.90;;;;;;4888834;29;20256;-72
2021/09/16 09:14:41;;;;;;;;;;;18.30;99.90;;;;;;4897718;29;19926;-72
2021/09/16 09:17:21;;;;;;;;;;;18.30;99.90;;;;;;4895010;29;19918;-71
2021/09/16 09:19:48;;;;;;;;;;;18.40;99.90;;;;;;4898554;29;19915;-71
2021/09/16 09:22:13;;;;;;;;;;;18.40;99.90;;;;;;4897053;29;19911;-72
2021/09/16 09:24:41;;;;;;;;;;;18.40;99.90;;;;;;4883291;29;19907;-73
2021/09/16 09:27:19;;;;;;;;;;;18.10;99.90;;;;;;4882974;29;19978;-71
2021/09/16 09:29:59;;;;;;;;;;;18.30;99.90;;;;;;4898499;29;20019;-71
2021/09/16 09:32:28;;;;;;;;;;;18.50;99.90;;;;;;4901486;29;19907;-70
2021/09/16 09:34:53;;;;;;;;;;;18.80;99.90;;;;;;4897971;29;20252;-70
2021/09/16 09:37:19;;;;;;;;;;;18.90;99.90;;;;;;4882986;29;19912;-69
2021/09/16 09:39:49;;;;;;;;;;;18.80;99.90;;;;;;4881157;29;19908;-70
2021/09/16 09:42:16;;;;;;;;;;;18.80;99.90;;;;;;4882474;29;19919;-71
2021/09/16 09:44:42;;;;;;;;;;;18.80;99.90;;;;;;4882265;29;19915;-71
2021/09/16 09:47:08;;;;;;;;;;;18.80;99.90;;;;;;4882318;29;19996;-70
2021/09/16 09:49:36;;;;;;;;;;;19.00;99.90;;;;;;4897291;29;20360;-71
2021/09/16 09:52:02;;;;;;;;;;;19.10;99.90;;;;;;4915483;29;19907;-72
2021/09/16 09:54:32;;;;;;;;;;;19.30;99.90;;;;;;4900864;29;19955;-70
2021/09/16 09:56:58;;;;;;;;;;;19.30;99.90;;;;;;4900726;29;19916;-71
2021/09/16 09:59:25;;;;;;;;;;;19.30;99.90;;;;;;4899485;29;19915;-70
2021/09/16 10:02:01;;;;;;;;;;;19.20;99.90;;;;;;4895668;29;20334;-70
2021/09/16 10:04:28;;;;;;;;;;;19.20;99.90;;;;;;4882219;29;19918;-73
2021/09/16 10:07:00;;;;;;;;;;;19.20;99.90;;;;;;4881659;29;19916;-69
2021/09/16 10:09:25;;;;;;;;;;;19.30;99.90;;;;;;4898298;29;19916;-71
2021/09/16 10:11:52;;;;;;;;;;;19.50;99.90;;;;;;4901589;29;19914;-71
2021/09/16 10:14:18;;;;;;;;;;;19.50;99.90;;;;;;4917084;29;19970;-70
2021/09/16 10:16:44;;;;;;;;;;;19.60;99.90;;;;;;4917154;29;19907;-71
2021/09/16 10:19:10;;;;;;;;;;;19.70;99.90;;;;;;4900972;29;20112;-73
2021/09/16 10:21:36;;;;;;;;;;;19.70;99.90;;;;;;4917005;29;19908;-72
2021/09/16 10:24:02;;;;;;;;;;;19.70;99.90;;;;;;4917048;29;19907;-70
2021/09/16 10:26:31;;;;;;;;;;;19.50;99.90;;;;;;4915348;29;19907;-71
2021/09/16 10:28:56;;;;;;;;;;;19.50;99.90;;;;;;4898141;29;20423;-71
2021/09/16 10:31:24;;;;;;;;;;;19.70;99.90;;;;;;4897897;29;19998;-72
2021/09/16 10:33:49;;;;;;;;;;;19.80;99.90;;;;;;4907960;29;20447;-71
2021/09/16 10:36:15;;;;;;;;;;;19.90;99.90;;;;;;4900934;29;19993;-72
2021/09/16 10:38:45;;;;;;;;;;;20.00;99.90;;;;;;4911388;29;19911;-70
2021/09/16 10:41:18;;;;;;;;;;;20.00;99.90;;;;;;4884096;29;19908;-71
2021/09/16 10:43:45;;;;;;;;;;;20.10;99.90;;;;;;4881021;29;19963;-71
2021/09/16 10:46:35;;;;;;;;;;;20.30;99.90;;;;;;4881092;29;20346;-70
2021/09/16 10:49:19;;;;;;;;;;;20.20;99.90;;;;;;4888555;29;20177;-71
2021/09/16 10:51:45;;;;;;;;;;;20.10;99.90;;;;;;4898753;29;20281;-71
2021/09/16 10:54:38;;;;;;;;;;;20.30;99.90;;;;;;4899604;29;19912;-70
2021/09/16 10:57:04;;;;;;;;;;;20.40;99.90;;;;;;4882408;29;19907;-71
2021/09/16 10:59:51;;;;;;;;;;;20.30;99.90;;;;;;4898275;29;19962;-72
2021/09/16 11:02:21;;;;;;;;;;;19.90;99.90;;;;;;4897996;29;19919;-71
2021/09/16 11:05:07;;;;;;;;;;;19.80;99.90;;;;;;4899343;29;19915;-71
2021/09/16 11:07:32;;;;;;;;;;;19.70;99.90;;;;;;4898964;29;20385;-71
2021/09/16 11:10:13;;;;;;;;;;;19.60;99.90;;;;;;4891821;29;19918;-71
2021/09/16 11:12:40;;;;;;;;;;;19.60;99.90;;;;;;4880391;29;19915;-72
2021/09/16 11:15:06;;;;;;;;;;;19.60;99.90;;;;;;4891702;29;19911;-71
2021/09/16 11:17:31;;;;;;;;;;;19.90;99.90;;;;;;4899288;29;20061;-71
2021/09/16 11:19:57;;;;;;;;;;;20.30;99.90;;;;;;4897588;29;19946;-72
2021/09/16 11:22:23;;;;;;;;;;;20.50;99.90;;;;;;4899369;29;20301;-72
2021/09/16 11:24:49;;;;;;;;;;;20.50;99.90;;;;;;4904326;29;19911;-72
2021/09/16 11:27:26;;;;;;;;;;;20.70;99.90;;;;;;4891566;29;19934;-71
2021/09/16 11:29:51;;;;;;;;;;;20.80;99.90;;;;;;4897684;29;19911;-71
2021/09/16 11:32:17;;;;;;;;;;;20.80;99.90;;;;;;4898872;29;19918;-71
2021/09/16 11:34:51;;;;;;;;;;;20.70;99.90;;;;;;4897011;29;19936;-71
2021/09/16 11:37:18;;;;;;;;;;;20.40;99.90;;;;;;4897593;29;20010;-71
2021/09/16 11:39:54;;;;;;;;;;;20.00;99.90;;;;;;4898044;29;19914;-71
2021/09/16 11:42:23;;;;;;;;;;;19.80;99.90;;;;;;4898770;29;19912;-71
2021/09/16 11:44:59;;;;;;;;;;;19.70;99.90;;;;;;4898670;29;19911;-71
2021/09/16 11:47:26;;;;;;;;;;;19.90;99.90;;;;;;4887384;29;19912;-71
2021/09/16 11:49:51;;;;;;;;;;;19.90;99.90;;;;;;4898461;29;19967;-72
2021/09/16 11:52:21;;;;;;;;;;;19.70;99.90;;;;;;4898476;29;19911;-71
2021/09/16 11:55:06;;;;;;;;;;;19.90;99.90;;;;;;4898830;29;20361;-71
2021/09/16 11:57:51;;;;;;;;;;;20.20;99.90;;;;;;4879881;29;19908;-71
2021/09/16 12:00:27;;;;;;;;;;;20.50;99.90;;;;;;4880197;29;20296;-71
2021/09/16 12:02:53;;;;;;;;;;;20.70;99.90;;;;;;4893884;29;20338;-71
2021/09/16 12:05:35;;;;;;;;;;;20.70;99.90;;;;;;4879811;29;19911;-71
2021/09/16 12:08:01;;;;;;;;;;;20.60;99.90;;;;;;4877749;29;19953;-72
2021/09/16 12:10:47;;;;;;;;;;;20.70;99.90;;;;;;4881671;29;19926;-71
2021/09/16 12:13:14;;;;;;;;;;;20.70;99.90;;;;;;4898467;29;19912;-72
2021/09/16 12:15:40;;;;;;;;;;;20.30;99.90;;;;;;4898232;29;20325;-71
2021/09/16 12:18:06;;;;;;;;;;;19.80;99.90;;;;;;4898220;29;19907;-73
2021/09/16 12:20:32;;;;;;;;;;;19.50;99.90;;;;;;4898226;29;19911;-72
2021/09/16 12:22:58;;;;;;;;;;;19.50;99.90;;;;;;4908323;29;20299;-72
2021/09/16 12:25:26;;;;;;;;;;;19.40;99.90;;;;;;4877888;29;19908;-71
2021/09/16 12:28:05;;;;;;;;;;;19.30;99.90;;;;;;4879505;29;19918;-71
2021/09/16 12:30:34;;;;;;;;;;;19.30;99.90;;;;;;4894070;29;19960;-72
2021/09/16 12:32:59;;;;;;;;;;;19.80;99.90;;;;;;4878275;29;19908;-71
2021/09/16 12:35:25;;;;;;;;;;;20.10;99.90;;;;;;4880011;29;20373;-72
2021/09/16 12:38:01;;;;;;;;;;;20.50;99.90;;;;;;4879396;29;19951;-72
2021/09/16 12:40:27;;;;;;;;;;;20.80;99.90;;;;;;4878094;29;19935;-71
2021/09/16 12:43:03;;;;;;;;;;;21.10;99.90;;;;;;4878034;29;19911;-71
2021/09/16 12:45:29;;;;;;;;;;;21.40;99.90;;;;;;4887914;29;20285;-71
2021/09/16 12:47:54;;;;;;;;;;;21.20;99.90;;;;;;4898088;29;19918;-71
2021/09/16 12:50:23;;;;;;;;;;;20.90;99.90;;;;;;4897950;29;19907;-71
2021/09/16 12:52:49;;;;;;;;;;;20.80;99.90;;;;;;4897847;29;20244;-71
2021/09/16 12:55:15;;;;;;;;;;;21.10;99.90;;;;;;4904509;29;19998;-72
2021/09/16 12:57:43;;;;;;;;;;;21.10;99.90;;;;;;4893400;29;19916;-72
2021/09/16 13:00:09;;;;;;;;;;;21.00;99.90;;;;;;4879329;29;19960;-71
2021/09/16 13:02:45;;;;;;;;;;;21.00;99.90;;;;;;4890831;29;19919;-72
2021/09/16 13:05:18;;;;;;;;;;;21.00;99.90;;;;;;4897848;29;19911;-72
2021/09/16 13:07:44;;;;;;;;;;;20.80;99.90;;;;;;4887858;29;20296;-71
2021/09/16 13:10:10;;;;;;;;;;;20.70;99.90;;;;;;4879056;29;20284;-72
2021/09/16 13:12:36;;;;;;;;;;;20.90;99.90;;;;;;4890710;29;19912;-72
2021/09/16 13:15:02;;;;;;;;;;;21.10;99.90;;;;;;4912313;29;20382;-71
2021/09/16 13:17:28;;;;;;;;;;;21.30;99.90;;;;;;4890146;29;19912;-72
2021/09/16 13:19:54;;;;;;;;;;;21.40;99.90;;;;;;4889073;29;19919;-72
2021/09/16 13:22:20;;;;;;;;;;;21.30;99.90;;;;;;4897737;29;20376;-71
2021/09/16 13:24:46;;;;;;;;;;;21.00;99.90;;;;;;4897673;29;19949;-71
2021/09/16 13:27:11;;;;;;;;;;;21.20;99.90;;;;;;4896149;29;20435;-71
2021/09/16 13:29:37;;;;;;;;;;;21.50;99.90;;;;;;4897598;29;19915;-73
2021/09/16 13:32:03;;;;;;;;;;;21.90;99.90;;;;;;4897618;29;19959;-72
2021/09/16 13:34:28;;;;;;;;;;;22.00;99.90;;;;;;4896301;29;19907;-72
2021/09/16 13:36:54;;;;;;;;;;;22.20;99.90;;;;;;4901072;29;19907;-71
2021/09/16 13:39:19;;;;;;;;;;;22.50;99.90;;;;;;4905937;29;20317;-72
2021/09/16 13:41:45;;;;;;;;;;;22.20;99.90;;;;;;4909409;29;19911;-72
2021/09/16 13:44:11;;;;;;;;;;;21.70;99.90;;;;;;4900938;29;19907;-71
2021/09/16 13:46:38;;;;;;;;;;;21.20;99.90;;;;;;4900938;29;19911;-72
2021/09/16 13:49:05;;;;;;;;;;;21.00;99.90;;;;;;4900773;29;19907;-72
2021/09/16 13:51:31;;;;;;;;;;;21.10;99.90;;;;;;4899223;29;19911;-72
2021/09/16 13:53:56;;;;;;;;;;;21.40;99.90;;;;;;4915469;29;19918;-72
2021/09/16 13:56:22;;;;;;;;;;;21.50;99.90;;;;;;4900681;29;19915;-71
2021/09/16 13:58:48;;;;;;;;;;;21.20;99.90;;;;;;4900876;29;19907;-72
2021/09/16 14:01:13;;;;;;;;;;;20.80;99.90;;;;;;4900737;29;19907;-72
2021/09/16 14:03:39;;;;;;;;;;;20.70;99.90;;;;;;4892649;29;20460;-72
2021/09/16 14:06:04;;;;;;;;;;;20.90;99.90;;;;;;4881700;29;19923;-71
2021/09/16 14:08:30;;;;;;;;;;;21.20;99.90;;;;;;4880278;29;20401;-72
2021/09/16 14:10:57;;;;;;;;;;;21.70;99.90;;;;;;4881764;29;19908;-72
2021/09/16 14:13:22;;;;;;;;;;;22.00;99.90;;;;;;4881654;29;20288;-72
2021/09/16 14:15:48;;;;;;;;;;;22.10;99.90;;;;;;4881668;29;19908;-72